Skip to main content

NOAA/GLERL Met Station at Muskegon, MI

Previous 5 days (top of hour only)
See also Previous 3 Hours (2 minute increments)
Jump down to Data
Switch to [English][Metric]
Zoom: Click and drag, Pan: shift-click and drag, Unzoom: double-click, Unzoom All






Note: Speed = mean wind during 2-minute period at top of hour,
Gust = max wind during 2-minute period at top of hour,
Peak = max wind during entire hour.
• See also 5-day windrose plot


NOAA/GLERL Met Station at Muskegon, MI

Previous 5 days (top of hour only)
See also Previous 3 Hours (2 minute increments)
Jump up to Graphs
Switch to [English][Metric]
                  Wind  Wind  Wind   Air   Dew   Rel     Sta   PAR
                   Spd   Gst   Dir  Temp    Pt   Hum    Pres uE/m2/
YYYY-MM-DD   EDT   kts   kts   deg     F     F     %   in Hg   sec
2017-09-23 14:00   8.9  10.3   192  78.8  68.8  71.0   29.49  2094
2017-09-23 13:00   7.8   9.9   189  78.4  68.7  71.5   29.50  2059
2017-09-23 12:00   6.4   8.6   185  77.2  68.7  74.6   29.50  2002
2017-09-23 11:00  10.1  12.1   184  76.1  69.0  78.2   29.49  1843
2017-09-23 10:00  12.2  13.8   183  74.3  68.8  82.6   29.48  1575
2017-09-23 09:00  11.7  13.6   189  73.8  68.8  84.3   29.47  1018
2017-09-23 08:00  13.4  14.6   189  73.8  68.5  83.3   29.46   181
2017-09-23 07:00  10.9  11.7   187  74.3  68.2  81.0   29.45     2
2017-09-23 06:00   7.4   8.6   182  73.6  67.3  80.4   29.43     2
2017-09-23 05:00   1.9   2.5   189  72.1  66.8  83.0   29.41     2
2017-09-23 04:00   3.7   4.5   140  73.2  66.5  79.2   29.39     2
2017-09-23 03:00   5.4   6.8   125  73.2  66.3  78.5   29.40     2
2017-09-23 02:00   6.4   7.4   120  72.7  67.3  82.9   29.40     2
2017-09-23 01:00   7.2   8.6   106  71.6  68.7  90.4   29.41     2
2017-09-23 00:00   6.4   6.8   129  74.5  68.4  81.0   29.41     2
2017-09-22 23:00   8.7   9.7   176  79.0  65.6  63.1   29.39     2
2017-09-22 22:00   5.6   6.4   166  75.2  67.9  77.8   29.39     2
2017-09-22 21:00   8.7   8.9   177  76.3  67.9  74.9   29.39     2
2017-09-22 20:00  10.9  11.3   179  76.3  68.6  76.7   29.39     4
2017-09-22 19:00   8.7   9.1   183  77.7  68.2  72.2   29.41   711
2017-09-22 18:00   6.6   7.4   182  79.2  68.1  68.5   29.41  1515
2017-09-22 17:00   8.0   9.1   189  78.3  69.0  72.7   29.42  1839
2017-09-22 16:00   7.8   8.6   193  77.2  69.6  77.2   29.43  1312
2017-09-22 15:00   9.3  11.1   185  77.7  69.7  75.9   29.44  2066
2017-09-22 14:00  12.6  14.2   181  77.2  69.8  77.5   29.45  2089
2017-09-22 13:00  10.5  12.1   187  76.6  69.4  78.1   29.45  2062
2017-09-22 12:00  12.1  14.2   186  75.9  69.2  79.3   29.46  1989
2017-09-22 11:00  11.7  13.4   182  75.4  69.2  80.9   29.46  1850
2017-09-22 10:00  12.8  15.7   187  75.0  68.7  80.5   29.45  1626
2017-09-22 09:00   2.9   5.6   161  75.4  68.1  77.9   29.45  1134
2017-09-22 08:00   5.4   6.2   119  70.3  66.9  88.8   29.45   204
2017-09-22 07:00   5.8   6.6   120  71.1  67.4  87.9   29.43     2
2017-09-22 06:00   6.8   8.6   167  75.4  68.1  77.7   29.43     2
2017-09-22 05:00   7.0   8.9   172  76.1  68.1  75.8   29.41     2
2017-09-22 04:00   9.5  10.5   175  75.7  67.5  75.2   29.41     2
2017-09-22 03:00  13.8  14.6   182  75.0  67.8  77.8   29.40     2
2017-09-22 02:00   9.3  10.3   179  75.4  67.1  75.0   29.40     2
2017-09-22 01:00   9.5  11.1   174  77.7  65.2  64.8   29.40     2
2017-09-22 00:00   8.2   9.5   174  78.1  66.2  66.3   29.40     2
2017-09-21 23:00   6.2   8.0   165  76.1  68.8  77.8   29.39     2
2017-09-21 22:00   7.4   7.8   118  74.1  71.6  91.7   29.39     2
2017-09-21 21:00   7.0   7.2   117  74.8  70.5  86.1   29.38     2
2017-09-21 20:00   1.7   2.7   155  74.8  69.4  82.8   29.39     4
2017-09-21 19:00   1.9   2.3   124  76.8  69.5  77.7   29.37   513
2017-09-21 18:00   1.9   2.1   233  75.0  70.0  84.2   29.36  1659
2017-09-21 17:00   2.5   2.9   224  73.4  70.2  89.5   29.38  1748
2017-09-21 16:00   8.2   8.7   194  73.2  70.3  90.3   29.39  1250
2017-09-21 15:00   8.9   9.9   193  73.6  70.2  88.9   29.40  1514
2017-09-21 14:00   8.2   9.7   188  73.0  70.0  90.0   29.41   981
2017-09-21 13:00   9.5  11.3   184  75.2  69.8  82.9   29.41  1590
2017-09-21 12:00  12.4  14.4   191  72.9  69.5  89.0   29.41  1199
2017-09-21 11:00  11.5  12.6   191  73.2  69.4  87.5   29.39  1281
2017-09-21 10:00   9.7  11.3   183  73.4  69.3  86.8   29.38  1427
2017-09-21 09:00   6.0   8.2   172  74.7  69.1  82.6   29.38  1177
2017-09-21 08:00  10.9  11.9   192  72.0  69.0  90.3   29.36   157
2017-09-21 07:00  14.0  16.1   189  72.7  69.0  87.9   29.34     2
2017-09-21 06:00  10.5  11.5   178  74.1  68.7  82.8   29.32     2
2017-09-21 05:00   9.3  11.3   166  74.7  68.6  81.1   29.30     2
2017-09-21 04:00   6.4   8.7   169  74.1  68.6  82.7   29.30     2
2017-09-21 03:00   5.2   5.6   119  72.1  68.7  88.9   29.33     2
2017-09-21 02:00   4.9   5.4   306  73.0  69.1  87.4   29.35     2
2017-09-21 01:00  15.2  15.7   186  75.4  69.0  80.3   29.33     2
2017-09-21 00:00  15.4  16.1   185  76.5  68.8  76.8   29.32     2
2017-09-20 23:00  14.0  16.1   172  79.3  68.7  69.5   29.28     2
2017-09-20 22:00  12.1  13.4   176  78.8  68.5  70.3   29.26     2
2017-09-20 21:00  11.7  14.4   169  81.1  68.8  65.6   29.25     2
2017-09-20 20:00  16.3  18.3   177  77.2  68.7  74.7   29.24     3
2017-09-20 19:00  15.7  16.5   179  77.4  68.4  73.6   29.25   671
2017-09-20 18:00  12.4  13.2   180  78.1  68.2  71.3   29.25  1472
2017-09-20 17:00   9.9  11.5   185  77.4  68.0  72.5   29.25  1821
2017-09-20 16:00  12.1  13.8   182  77.2  66.8  69.8   29.27  1325
2017-09-20 15:00   7.6   9.1   187  76.6  66.4  70.3   29.30  2056
2017-09-20 14:00   6.2   7.6   186  76.5  65.9  69.3   29.32  2070
2017-09-20 13:00   9.7  10.1   220  69.6  67.1  91.5   29.34  1739
2017-09-20 12:00  10.3  11.3   193  74.3  66.1  75.2   29.31  2011
2017-09-20 11:00   5.6   8.6   154  71.8  65.3  79.8   29.31  1819
2017-09-20 10:00  11.1  12.8   180  67.3  65.8  94.8   29.33   622
2017-09-20 09:00   4.3   5.6   157  66.7  65.9  97.0   29.33  1162
2017-09-20 08:00   5.4   8.2   141  65.5  65.1  98.7   29.32   194
2017-09-20 07:00   4.3   5.8   119  66.4  65.3  96.2   29.32     2
2017-09-20 06:00   3.9   4.9   119  66.6  65.2  95.3   29.33     2
2017-09-20 05:00   5.2   6.2   112  66.4  65.0  95.3   29.31     2
2017-09-20 04:00   5.1   6.6   124  65.5  64.4  96.4   29.29     2
2017-09-20 03:00   9.9  12.1   117  64.4  63.8  97.9   29.29     2
2017-09-20 02:00   9.7  13.6   116  64.2  63.6  97.9   29.31     2
2017-09-20 01:00   8.6  11.7   106  64.6  63.0  94.6   29.31     2
2017-09-20 00:00   6.2   7.8   106  65.3  62.9  91.8   29.32     2
2017-09-19 23:00   6.2   8.2   103  66.6  62.1  85.5   29.32     2
2017-09-19 22:00   5.8   8.0   121  67.8  61.8  80.8   29.31     2
2017-09-19 21:00   6.0   7.8   126  69.3  61.6  76.4   29.31     2
2017-09-19 20:00   1.9   2.1    99  68.0  63.5  85.4   29.30     6
2017-09-19 19:00   7.2   8.7   346  69.3  64.2  83.6   29.30   712
2017-09-19 18:00   9.1   9.9   335  70.7  64.1  79.4   29.31  1595
2017-09-19 17:00   3.5   5.2   275  70.0  64.0  81.0   29.31  1228
2017-09-19 16:00   3.7   4.9    78  74.3  61.3  63.4   29.32  1083
2017-09-19 15:00   6.6  10.7   117  73.0  59.6  62.2   29.33  1778
2017-09-19 14:00   7.0   9.3   118  71.8  57.7  60.7   29.34  1432
2017-09-19 13:00   8.4  10.3   103  70.2  56.6  61.6   29.35  1380
2017-09-19 12:00  12.1  15.0    88  66.0  53.6  63.8   29.36   886
2017-09-19 11:00  12.8  16.5    97  64.9  52.6  64.0   29.35   580
2017-09-19 10:00   9.3  13.0   104  63.7  51.1  63.3   29.35   477
2017-09-19 09:00  10.3  13.8    97  62.1  54.9  77.2   29.36   300
2017-09-19 08:00  12.6  16.5   109  62.8  55.4  76.6   29.36    27
2017-09-19 07:00  12.6  15.7   106  63.0  57.8  82.9   29.35     2
2017-09-19 06:00  10.7  13.4   105  63.3  60.5  90.5   29.35     2
2017-09-19 05:00  11.5  14.4   105  63.3  60.7  90.9   29.34     2
2017-09-19 04:00   8.2  11.7   110  63.7  59.8  87.1   29.35     2
2017-09-19 03:00  11.9  16.1   110  63.7  58.1  81.8   29.36     2
2017-09-19 02:00   9.5  11.5   100  63.7  57.1  78.8   29.37     2
2017-09-19 01:00   8.9  11.3   118  64.4  55.5  72.5   29.38     2
2017-09-19 00:00   8.7  11.5   123  65.5  55.1  68.8   29.38     2
2017-09-18 23:00   6.8   9.3   109  64.8  59.1  81.6   29.39     2
2017-09-18 22:00   4.7   5.1    90  64.2  60.4  87.2   29.39     2
2017-09-18 21:00   5.2   6.2    85  65.1  59.9  83.1   29.39     2
2017-09-18 20:00   6.0   7.2     5  66.2  59.5  78.7   29.39     6